Avioradar koristi kolačiće da bi Vam omogućio jednostavnije i ugodnije korištenje stranice. 

AVIORADAR - Novosti i informacije

POREMEĆAJ 11.07.2017 - Nevrijeme zahvatilo Zadarsko područje

Nenad Sredojević.

LDZD - nevrijeme

U večernjim satima područje Zadra zahvaćeno je jakim nevremenom.

Zbog nevremena je došlo i do poremećaja u prometu. Ranije je to nevrijeme prešlo preko riječkog područja.

METAR LDZD 112000Z 33006KT 270V040 9999 -TSRA FEW040CB SCT050 23/20 Q1016 BECMG NSW SCT050 =

- FR9501 /RYR22ER MAN-ZAD je u holdingu iznad Pule -  sletio u ZAD (2225LT)

- FR8388 /RYR9PN STN-ZAD je u holdingu NW od Zadra - sletio u ZAD (2220LT)

- 4U974 /GWI5PF CGN-ZAD je u holdingu kraj Splita -  preusmjeren na SPU (2218LT)

FR4092 /RYR49MG BRS-ZAD je u prilazu -  sletio u ZAD (2240LT)

OU632 /CTN632 ZAG-ZAD je u prilazu - sletio u ZAD (2245LT)


Nevrijeme je kasnije prešlo i na Zagreb:

- LH1404 /DLH6YW
FRA-ZAG je u holdingu iznad Slovenije - preusmjeren na VIE

Zrakoplovi CTN-a prema Splitu i Dubrovniku su zaobilazili nevrijeme te su letjeli istočnije od uobičajenih ruta. 

f_800_450_16119285_00_images_SQUAWK_LDZD_nevrijeme1.jpg

Slična situacija je i u Sloveniji gdje su četiri zrakoplova (JP395 /ADR395, JP307 /ADR37Z, JP125 /ADR125, JP137 /ADR137) u holdingu.

Na svim našim zračnim lukama su zabilježena kašnjenja jer je danas nevrijeme pogodilo veći dio Europe.

 

Foto: Lightningmaps.org / Avioradar - ADS-B mapa -screenshot